Terminal Aerodrome Forecast
Issued by NWS

Home | Current Version | Previous Version | Text Only | Print | Product List | Glossary On
Versions: 1 2 3 4 5 6 7 8 9 10 11 12 13 14 15 16 17 18 19 20 21 22 23 24 25 26 27 28 29 30 31 32 33 34
000
FTUS43 KLOT 110500
TAFMDW
TAF
KMDW 110539Z 1106/1206 13004KT P6SM SCT250
     FM111400 17008KT P6SM FEW040 SCT250
     FM111900 13008KT P6SM FEW050 SCT250
     FM120400 19011KT P6SM FEW050 SCT180=

USA.gov is the U.S. government's official web portal to all federal, state and local government web resources and services.